createdAt,value
2022-08-07T00:00:52.549Z,45.66
2022-08-07T00:03:20.365Z,45.41
2022-08-07T00:05:54.308Z,45.27
2022-08-07T00:08:25.184Z,45.31
2022-08-07T00:10:57.482Z,45.34
2022-08-07T00:13:26.910Z,45.41
2022-08-07T00:15:55.297Z,45.04
2022-08-07T00:18:25.334Z,45.22
2022-08-07T00:20:56.739Z,45.03
2022-08-07T00:23:25.401Z,45.20
2022-08-07T00:26:00.041Z,44.96
2022-08-07T00:28:33.674Z,45.11
2022-08-07T00:31:06.096Z,45.03
2022-08-07T00:33:41.250Z,45.24
2022-08-07T00:36:10.087Z,45.02
2022-08-07T00:38:38.967Z,45.01
2022-08-07T00:41:10.026Z,44.67
2022-08-07T00:44:01.960Z,44.70
2022-08-07T00:46:33.004Z,45.04
2022-08-07T00:49:02.998Z,44.93
2022-08-07T00:51:57.526Z,44.85
2022-08-07T00:54:19.799Z,44.63
2022-08-07T00:56:49.832Z,44.75
2022-08-07T00:59:20.324Z,44.58
2022-08-07T01:02:13.891Z,44.65
2022-08-07T01:04:58.359Z,44.48
2022-08-07T01:07:29.480Z,44.56
2022-08-07T01:10:06.557Z,44.45
2022-08-07T01:12:53.349Z,44.35
2022-08-07T01:16:00.696Z,44.22
2022-08-07T01:18:16.766Z,44.32
2022-08-07T01:21:05.377Z,44.23
2022-08-07T01:23:51.657Z,44.07
2022-08-07T01:26:20.814Z,44.40
2022-08-07T01:28:50.673Z,44.06
2022-08-07T01:31:21.288Z,44.10
2022-08-07T01:33:55.267Z,44.20
2022-08-07T01:36:33.494Z,43.92
2022-08-07T01:39:04.189Z,44.04
2022-08-07T01:41:40.778Z,43.62
2022-08-07T01:44:22.768Z,43.89
2022-08-07T01:46:52.088Z,43.97
2022-08-07T01:49:21.463Z,43.83
2022-08-07T01:52:01.884Z,43.73
2022-08-07T01:54:41.652Z,43.67
2022-08-07T01:57:27.553Z,43.37
2022-08-07T02:00:12.853Z,43.49
2022-08-07T02:03:18.136Z,43.13
2022-08-07T02:05:48.092Z,43.63
2022-08-07T02:08:29.412Z,43.23
2022-08-07T02:11:00.953Z,43.39
2022-08-07T02:13:57.841Z,43.58
2022-08-07T02:16:28.606Z,43.63
2022-08-07T02:20:04.937Z,43.42
2022-08-07T02:21:58.660Z,43.14
2022-08-07T02:24:29.511Z,43.04
2022-08-07T02:27:02.749Z,43.20
2022-08-07T02:29:36.817Z,43.43
2022-08-07T02:32:18.871Z,43.03
2022-08-07T02:34:52.164Z,43.19
2022-08-07T02:37:23.675Z,43.49
2022-08-07T02:40:02.150Z,43.48
2022-08-07T02:42:41.797Z,43.37
2022-08-07T02:45:58.511Z,42.98
2022-08-07T02:48:01.981Z,43.27
2022-08-07T02:50:34.306Z,42.91
2022-08-07T02:53:10.969Z,43.43
2022-08-07T02:56:04.469Z,43.32
2022-08-07T02:58:34.977Z,43.21
2022-08-07T03:01:04.175Z,43.17
2022-08-07T03:03:49.093Z,43.23
2022-08-07T03:06:26.103Z,43.34
2022-08-07T03:09:06.167Z,43.19
2022-08-07T03:11:38.959Z,43.34
2022-08-07T03:14:22.573Z,43.42
2022-08-07T03:16:50.953Z,43.21
2022-08-07T03:19:20.731Z,43.22
2022-08-07T03:21:51.193Z,43.03
2022-08-07T03:24:27.366Z,43.12
2022-08-07T03:27:00.853Z,43.11
2022-08-07T03:29:38.585Z,42.92
2022-08-07T03:32:14.766Z,43.11
2022-08-07T03:34:47.447Z,42.91
2022-08-07T03:37:37.335Z,42.85
2022-08-07T03:40:15.578Z,42.94
2022-08-07T03:42:44.039Z,42.99
2022-08-07T03:45:12.364Z,42.66
2022-08-07T03:47:59.665Z,42.88
2022-08-07T03:50:29.065Z,42.64
2022-08-07T03:52:59.262Z,42.93
2022-08-07T03:55:57.490Z,43.13
2022-08-07T03:59:05.520Z,42.89
2022-08-07T04:01:11.331Z,42.82
2022-08-07T04:03:53.831Z,42.84
2022-08-07T04:06:37.258Z,42.64
2022-08-07T04:09:15.026Z,42.87
2022-08-07T04:12:25.548Z,42.78
2022-08-07T04:14:43.888Z,42.74
2022-08-07T04:17:20.565Z,42.91
2022-08-07T04:19:52.818Z,42.80
2022-08-07T04:22:27.401Z,42.80
2022-08-07T04:25:01.517Z,42.84
2022-08-07T04:27:35.668Z,42.68
2022-08-07T04:30:11.658Z,42.68
2022-08-07T04:32:58.573Z,42.90
2022-08-07T04:35:26.790Z,42.94
2022-08-07T04:38:05.387Z,42.57
2022-08-07T04:40:51.391Z,42.80
2022-08-07T04:44:09.922Z,42.64
2022-08-07T04:46:59.650Z,42.96
2022-08-07T04:49:47.575Z,42.74
2022-08-07T04:52:59.282Z,42.86
2022-08-07T04:58:23.767Z,42.68
2022-08-07T05:00:07.945Z,42.71
2022-08-07T05:01:52.330Z,42.45
2022-08-07T05:04:26.343Z,42.46
2022-08-07T05:07:09.573Z,42.93
2022-08-07T05:09:55.019Z,42.67
2022-08-07T05:12:30.602Z,42.69
2022-08-07T05:15:21.801Z,42.68
2022-08-07T05:17:58.251Z,42.44
2022-08-07T05:20:37.974Z,42.48
2022-08-07T05:23:17.766Z,41.99
2022-08-07T05:26:11.084Z,42.44
2022-08-07T05:28:40.482Z,42.65
2022-08-07T05:31:11.466Z,42.32
2022-08-07T05:34:00.993Z,42.37
2022-08-07T05:36:32.400Z,42.05
2022-08-07T05:40:06.821Z,42.05
2022-08-07T05:42:01.779Z,42.18
2022-08-07T05:44:35.126Z,42.60
2022-08-07T05:47:38.568Z,42.22
2022-08-07T05:49:52.961Z,42.74
2022-08-07T05:52:32.580Z,42.42
2022-08-07T05:55:10.297Z,42.44
2022-08-07T05:57:42.282Z,42.64
2022-08-07T06:00:16.134Z,42.65
2022-08-07T06:02:49.327Z,42.40
2022-08-07T06:05:18.191Z,42.81
2022-08-07T06:08:13.169Z,42.82
2022-08-07T06:10:38.837Z,42.85
2022-08-07T06:13:06.309Z,42.43
2022-08-07T06:15:42.991Z,42.72
2022-08-07T06:18:13.924Z,42.26
2022-08-07T06:20:51.127Z,42.75
2022-08-07T06:24:37.816Z,42.52
2022-08-07T06:26:20.780Z,42.58
2022-08-07T06:28:53.610Z,42.45
2022-08-07T06:31:24.270Z,42.73
2022-08-07T06:34:09.529Z,42.49
2022-08-07T06:36:38.135Z,42.79
2022-08-07T06:40:13.411Z,42.53
2022-08-07T06:42:32.997Z,42.76
2022-08-07T06:45:04.665Z,42.68
2022-08-07T06:47:38.745Z,42.80
2022-08-07T06:50:20.473Z,42.55
2022-08-07T06:52:53.624Z,42.89
2022-08-07T06:56:00.436Z,42.45
2022-08-07T06:58:21.485Z,42.36
2022-08-07T07:00:53.215Z,42.74
2022-08-07T07:03:39.741Z,42.75
2022-08-07T07:06:11.409Z,43.14
2022-08-07T07:08:39.870Z,42.87
2022-08-07T07:12:08.478Z,42.99
2022-08-07T07:14:03.997Z,42.91
2022-08-07T07:16:49.683Z,43.18
2022-08-07T07:19:55.547Z,43.21
2022-08-07T07:22:39.868Z,43.00
2022-08-07T07:26:30.773Z,42.92
2022-08-07T07:28:07.573Z,42.83
2022-08-07T07:31:00.008Z,43.09
2022-08-07T07:33:30.576Z,43.38
2022-08-07T07:36:05.650Z,43.44
2022-08-07T07:38:43.546Z,43.48
2022-08-07T07:41:16.642Z,43.04
2022-08-07T07:43:47.907Z,43.48
2022-08-07T07:46:54.097Z,43.24
2022-08-07T07:50:34.646Z,43.42
2022-08-07T07:52:18.761Z,43.09
2022-08-07T07:54:50.592Z,43.42
2022-08-07T07:57:43.955Z,43.28
2022-08-07T08:00:15.072Z,43.16
2022-08-07T08:03:07.843Z,42.97
2022-08-07T08:05:50.954Z,43.04
2022-08-07T08:08:35.160Z,43.15
2022-08-07T08:11:16.548Z,43.37
2022-08-07T08:13:54.728Z,43.12
2022-08-07T08:16:36.980Z,43.01
2022-08-07T08:19:17.934Z,43.12
2022-08-07T08:22:16.676Z,43.31
2022-08-07T08:25:24.612Z,43.21
2022-08-07T08:28:01.796Z,43.42
2022-08-07T08:30:37.488Z,43.36
2022-08-07T08:33:17.004Z,43.30
2022-08-07T08:35:49.859Z,43.35
2022-08-07T08:38:29.602Z,43.25
2022-08-07T08:41:56.742Z,43.52
2022-08-07T08:44:58.384Z,43.33
2022-08-07T08:47:47.383Z,43.47
2022-08-07T08:50:45.397Z,43.37
2022-08-07T08:53:19.724Z,43.72
2022-08-07T08:56:08.437Z,43.51
2022-08-07T08:58:58.043Z,43.48
2022-08-07T09:01:44.165Z,43.42
2022-08-07T09:04:28.680Z,43.36
2022-08-07T09:07:11.269Z,43.74
2022-08-07T09:10:02.546Z,43.53
2022-08-07T09:12:40.003Z,43.77
2022-08-07T09:16:22.941Z,43.43
2022-08-07T09:18:53.410Z,43.68
2022-08-07T09:22:10.019Z,43.43
2022-08-07T09:24:55.522Z,42.90
2022-08-07T09:28:00.413Z,42.58
2022-08-07T09:30:45.415Z,42.29
2022-08-07T09:33:57.620Z,42.49
2022-08-07T09:36:43.146Z,42.20
2022-08-07T09:39:55.454Z,41.82
2022-08-07T09:42:33.889Z,42.04
2022-08-07T09:46:29.095Z,41.80
2022-08-07T09:48:25.130Z,41.66
2022-08-07T09:52:09.973Z,41.72
2022-08-07T09:54:27.263Z,41.57
2022-08-07T09:57:13.037Z,41.64
2022-08-07T10:00:02.013Z,41.52
2022-08-07T10:03:08.554Z,41.59
2022-08-07T10:05:59.739Z,41.59
2022-08-07T10:09:00.452Z,41.82
2022-08-07T10:12:02.249Z,41.65
2022-08-07T10:15:00.473Z,41.45
2022-08-07T10:18:00.976Z,41.35
2022-08-07T10:20:57.605Z,41.40
2022-08-07T10:24:05.156Z,41.10
2022-08-07T10:26:51.760Z,41.29
2022-08-07T10:29:53.060Z,40.90
2022-08-07T10:32:59.948Z,40.72
2022-08-07T10:35:55.567Z,40.58
2022-08-07T10:38:48.990Z,40.22
2022-08-07T10:41:51.452Z,40.29
2022-08-07T10:45:45.116Z,39.96
2022-08-07T10:48:35.516Z,38.85
2022-08-07T10:51:16.598Z,40.04
2022-08-07T10:54:40.878Z,39.68
2022-08-07T10:57:51.531Z,39.49
2022-08-07T11:00:39.294Z,40.07
2022-08-07T11:03:37.332Z,39.46
2022-08-07T11:06:32.488Z,39.35
2022-08-07T11:09:11.496Z,39.83
2022-08-07T11:11:59.141Z,39.72
2022-08-07T11:14:46.453Z,39.81
2022-08-07T11:17:43.270Z,40.16
2022-08-07T11:20:31.340Z,39.15
2022-08-07T11:23:20.853Z,39.02
2022-08-07T11:26:13.176Z,38.27
2022-08-07T11:28:58.429Z,38.11
2022-08-07T11:31:37.402Z,38.76
2022-08-07T11:34:11.282Z,38.15
2022-08-07T11:37:13.269Z,38.79
2022-08-07T11:40:05.691Z,38.87
2022-08-07T11:42:52.813Z,38.75
2022-08-07T11:45:35.875Z,39.25
2022-08-07T11:48:13.909Z,39.49
2022-08-07T11:51:09.759Z,38.45
2022-08-07T11:54:01.390Z,39.05
2022-08-07T11:56:59.211Z,38.60
2022-08-07T12:00:10.493Z,38.42
2022-08-07T12:02:57.432Z,38.59
2022-08-07T12:05:49.013Z,38.58
2022-08-07T12:08:34.919Z,38.35
2022-08-07T12:11:23.901Z,38.72
2022-08-07T12:14:20.818Z,39.01
2022-08-07T12:16:58.736Z,38.64
2022-08-07T12:19:35.943Z,38.90
2022-08-07T12:22:47.247Z,38.33
2022-08-07T12:26:03.493Z,38.72
2022-08-07T12:29:16.036Z,38.52
2022-08-07T12:32:04.055Z,38.23
2022-08-07T12:34:35.951Z,37.96
2022-08-07T12:37:08.642Z,38.04
2022-08-07T12:39:51.491Z,38.02
2022-08-07T12:42:27.670Z,38.30
2022-08-07T12:45:07.262Z,38.13
2022-08-07T12:47:49.224Z,38.26
2022-08-07T12:50:38.088Z,38.42
2022-08-07T12:53:18.994Z,38.16
2022-08-07T12:56:02.796Z,38.09
2022-08-07T12:58:37.497Z,38.48
2022-08-07T13:01:32.907Z,38.32
2022-08-07T13:04:32.530Z,38.03
2022-08-07T13:08:11.647Z,38.31
2022-08-07T13:10:37.086Z,38.08
2022-08-07T13:13:47.116Z,38.21
2022-08-07T13:16:22.821Z,38.17
2022-08-07T13:19:35.055Z,38.53
2022-08-07T13:22:32.117Z,38.16
2022-08-07T13:25:10.365Z,38.43
2022-08-07T13:28:11.370Z,38.44
2022-08-07T13:30:44.195Z,38.16
2022-08-07T13:34:29.889Z,38.08
2022-08-07T13:36:19.376Z,38.02
2022-08-07T13:39:12.776Z,38.03
2022-08-07T13:41:57.929Z,37.92
2022-08-07T13:44:34.300Z,37.40
2022-08-07T13:47:09.206Z,36.92
2022-08-07T13:50:34.995Z,37.09
2022-08-07T13:52:38.079Z,37.18
2022-08-07T13:55:19.486Z,36.84
2022-08-07T13:58:50.485Z,36.64
2022-08-07T14:01:27.366Z,36.73
2022-08-07T14:04:07.774Z,36.75
2022-08-07T14:06:39.128Z,36.97
2022-08-07T14:10:01.279Z,36.65
2022-08-07T14:12:13.745Z,36.67
2022-08-07T14:14:44.854Z,36.42
2022-08-07T14:18:13.588Z,36.56
2022-08-07T14:20:40.932Z,36.84
2022-08-07T14:23:14.777Z,37.05
2022-08-07T14:26:05.523Z,36.82
2022-08-07T14:28:59.633Z,36.70
2022-08-07T14:31:26.132Z,37.14
2022-08-07T14:34:20.236Z,36.97
2022-08-07T14:36:56.230Z,37.03
2022-08-07T14:40:17.797Z,36.65
2022-08-07T14:42:20.640Z,36.77
2022-08-07T14:44:53.735Z,36.97
2022-08-07T14:47:33.738Z,36.58
2022-08-07T14:50:07.006Z,35.98
2022-08-07T14:52:39.953Z,35.52
2022-08-07T14:55:11.382Z,35.85
2022-08-07T14:57:58.387Z,35.93
2022-08-07T15:00:31.077Z,36.46
2022-08-07T15:03:19.130Z,36.36
2022-08-07T15:08:54.620Z,36.28
2022-08-07T15:11:53.250Z,36.14
2022-08-07T15:14:22.847Z,35.97
2022-08-07T15:17:16.778Z,34.97
2022-08-07T15:20:33.445Z,34.82
2022-08-07T15:22:53.744Z,34.75
2022-08-07T15:34:14.738Z,35.06
2022-08-07T15:37:03.274Z,34.57
2022-08-07T15:39:56.853Z,34.58
2022-08-07T15:42:43.460Z,34.68
2022-08-07T15:45:22.652Z,34.77
2022-08-07T15:48:02.249Z,35.41
2022-08-07T15:50:37.473Z,34.71
2022-08-07T15:53:42.170Z,34.91
2022-08-07T15:56:33.445Z,34.34
2022-08-07T15:59:16.405Z,35.12
2022-08-07T16:02:01.758Z,34.22
2022-08-07T16:04:33.541Z,33.92
2022-08-07T16:08:30.794Z,34.40
2022-08-07T16:10:02.855Z,34.18
2022-08-07T16:13:01.255Z,34.37
2022-08-07T16:16:48.817Z,33.99
2022-08-07T16:19:59.223Z,34.27
2022-08-07T16:22:55.057Z,35.47
2022-08-07T16:25:52.728Z,40.19
2022-08-07T16:30:07.195Z,44.03
2022-08-07T16:31:51.407Z,43.69
2022-08-07T16:34:24.051Z,44.33
2022-08-07T16:38:06.140Z,45.21
2022-08-07T16:40:28.103Z,43.87
2022-08-07T16:43:23.662Z,45.92
2022-08-07T16:47:09.532Z,45.67
2022-08-07T16:50:28.057Z,44.32
2022-08-07T16:54:02.872Z,46.32
2022-08-07T16:56:23.656Z,46.62
2022-08-07T16:59:46.982Z,46.23
2022-08-07T17:02:51.588Z,45.79
2022-08-07T17:06:26.713Z,45.81
2022-08-07T17:08:19.091Z,44.42
2022-08-07T17:10:57.452Z,45.24
2022-08-07T17:14:17.772Z,46.84
2022-08-07T17:16:56.063Z,46.21
2022-08-07T17:20:01.957Z,47.23
2022-08-07T17:22:56.772Z,47.59
2022-08-07T17:25:51.264Z,47.64
2022-08-07T17:28:32.350Z,47.19
2022-08-07T17:31:16.137Z,46.28
2022-08-07T17:34:34.578Z,47.57
2022-08-07T17:37:09.666Z,47.58
2022-08-07T17:39:57.689Z,48.22
2022-08-07T17:42:36.322Z,47.94
2022-08-07T17:45:32.121Z,48.79
2022-08-07T17:48:10.271Z,49.94
2022-08-07T17:50:54.144Z,49.36
2022-08-07T17:54:00.151Z,49.18
2022-08-07T17:56:49.491Z,49.18
2022-08-07T17:59:36.207Z,50.01
2022-08-07T18:02:16.818Z,49.85
2022-08-07T18:05:01.336Z,48.46
2022-08-07T18:08:15.500Z,48.87
2022-08-07T18:12:07.105Z,48.78
2022-08-07T18:14:01.519Z,46.50
2022-08-07T18:16:58.094Z,48.62
2022-08-07T18:21:08.672Z,49.32
2022-08-07T18:22:35.472Z,48.59
2022-08-07T18:25:19.516Z,48.77
2022-08-07T18:27:53.709Z,48.45
2022-08-07T18:30:50.158Z,49.98
2022-08-07T18:33:55.072Z,50.55
2022-08-07T18:36:33.780Z,49.72
2022-08-07T18:40:05.638Z,50.02
2022-08-07T18:42:16.263Z,50.36
2022-08-07T18:45:43.047Z,49.52
2022-08-07T18:50:06.087Z,50.89
2022-08-07T18:52:34.674Z,50.81
2022-08-07T18:54:38.952Z,48.83
2022-08-07T18:57:30.892Z,49.42
2022-08-07T19:00:33.130Z,49.40
2022-08-07T19:03:12.453Z,49.02
2022-08-07T19:06:05.751Z,48.82
2022-08-07T19:09:09.377Z,49.25
2022-08-07T19:12:08.335Z,48.88
2022-08-07T19:15:04.066Z,47.38
2022-08-07T19:18:34.020Z,47.50
2022-08-07T19:21:43.964Z,48.97
2022-08-07T19:24:12.759Z,48.68
2022-08-07T19:28:29.120Z,48.16
2022-08-07T19:31:04.084Z,45.65
2022-08-07T19:32:47.934Z,44.97
2022-08-07T19:35:23.292Z,44.41
2022-08-07T19:37:58.373Z,43.40
2022-08-07T19:40:31.923Z,46.17
2022-08-07T19:43:08.706Z,46.42
2022-08-07T19:46:05.977Z,45.03
2022-08-07T19:48:42.945Z,47.54
2022-08-07T19:51:19.797Z,44.96
2022-08-07T19:54:34.190Z,47.32
2022-08-07T19:57:51.950Z,47.81
2022-08-07T19:59:42.029Z,44.49
2022-08-07T20:02:19.767Z,46.06
2022-08-07T20:04:52.767Z,47.17
2022-08-07T20:07:45.921Z,45.58
2022-08-07T20:10:37.085Z,43.39
2022-08-07T20:13:23.229Z,47.12
2022-08-07T20:15:57.726Z,45.98
2022-08-07T20:18:33.365Z,43.51
2022-08-07T20:21:20.835Z,41.47
2022-08-07T20:24:00.470Z,46.35
2022-08-07T20:26:44.796Z,44.84
2022-08-07T20:29:49.098Z,44.86
2022-08-07T20:32:11.562Z,45.05
2022-08-07T20:35:07.596Z,44.22
2022-08-07T20:37:59.328Z,46.75
2022-08-07T20:40:33.084Z,41.87
2022-08-07T20:43:09.586Z,46.17
2022-08-07T20:46:25.606Z,43.08
2022-08-07T20:48:34.665Z,44.77
2022-08-07T20:51:09.827Z,46.22
2022-08-07T20:54:03.946Z,46.42
2022-08-07T20:56:34.688Z,44.77
2022-08-07T20:59:06.044Z,44.26
2022-08-07T21:01:58.460Z,43.39
2022-08-07T21:04:29.806Z,44.26
2022-08-07T21:07:04.423Z,44.75
2022-08-07T21:09:52.373Z,43.37
2022-08-07T21:12:31.822Z,44.88
2022-08-07T21:15:03.588Z,45.71
2022-08-07T21:18:06.567Z,45.16
2022-08-07T21:20:30.240Z,44.08
2022-08-07T21:23:26.342Z,43.45
2022-08-07T21:26:20.505Z,43.03
2022-08-07T21:29:00.744Z,44.32
2022-08-07T21:32:46.897Z,44.53
2022-08-07T21:34:49.741Z,45.03
2022-08-07T21:37:17.101Z,43.94
2022-08-07T21:39:57.917Z,44.99
2022-08-07T21:42:56.934Z,44.57
2022-08-07T21:46:09.033Z,43.90
2022-08-07T21:48:42.465Z,45.55
2022-08-07T21:51:24.831Z,41.64
2022-08-07T21:54:01.039Z,40.00
2022-08-07T21:56:56.193Z,43.40
2022-08-07T22:00:04.577Z,43.39
2022-08-07T22:02:44.820Z,42.11
2022-08-07T22:05:44.845Z,44.79
2022-08-07T22:08:10.421Z,44.53
2022-08-07T22:10:38.389Z,43.66
2022-08-07T22:13:14.275Z,43.01
2022-08-07T22:16:39.067Z,45.10
2022-08-07T22:19:07.411Z,43.25
2022-08-07T22:22:02.126Z,42.93
2022-08-07T22:25:07.645Z,43.71
2022-08-07T22:28:08.162Z,43.12
2022-08-07T22:30:38.473Z,41.66
2022-08-07T22:33:12.336Z,43.36
2022-08-07T22:35:54.690Z,44.39
2022-08-07T22:39:02.738Z,42.53
2022-08-07T22:42:04.023Z,43.56
2022-08-07T22:44:34.468Z,43.23
2022-08-07T22:47:08.623Z,42.06
2022-08-07T22:49:59.754Z,42.76
2022-08-07T22:52:37.624Z,42.45
2022-08-07T22:55:46.386Z,41.93
2022-08-07T22:58:28.116Z,43.32
2022-08-07T23:01:22.516Z,42.86
2022-08-07T23:03:59.092Z,42.74
2022-08-07T23:06:59.183Z,41.83
2022-08-07T23:10:01.037Z,39.82
2022-08-07T23:12:57.829Z,40.08
2022-08-07T23:16:06.184Z,42.76
2022-08-07T23:19:15.204Z,43.04
2022-08-07T23:21:59.531Z,41.39
2022-08-07T23:24:57.922Z,40.19
2022-08-07T23:28:21.026Z,40.06
2022-08-07T23:31:05.876Z,39.75
2022-08-07T23:34:22.322Z,39.10
2022-08-07T23:37:22.379Z,41.18
2022-08-07T23:40:09.024Z,43.26
2022-08-07T23:42:55.300Z,38.48
2022-08-07T23:46:03.754Z,40.70
2022-08-07T23:49:07.855Z,41.71
2022-08-07T23:53:01.037Z,40.16
2022-08-07T23:54:52.812Z,39.41
2022-08-07T23:57:31.081Z,41.98
